createdAt,value
2022-11-26T00:03:19.369Z,-33.32
2022-11-26T00:08:35.438Z,-33.22
2022-11-26T00:13:38.138Z,-33.27
2022-11-26T00:18:41.874Z,-33.27
2022-11-26T00:23:44.984Z,-33.31
2022-11-26T00:29:00.493Z,-33.38
2022-11-26T00:34:03.149Z,-33.38
2022-11-26T00:39:14.774Z,-33.42
2022-11-26T00:44:24.491Z,-33.45
2022-11-26T00:49:29.167Z,-33.49
2022-11-26T00:54:32.063Z,-33.54
2022-11-26T00:59:34.737Z,-33.58
2022-11-26T01:04:37.652Z,-33.65
2022-11-26T01:09:41.787Z,-33.63
2022-11-26T01:14:44.531Z,-33.67
2022-11-26T01:19:47.642Z,-33.70
2022-11-26T01:24:50.713Z,-33.83
2022-11-26T01:29:53.361Z,-33.75
2022-11-26T01:34:56.024Z,-33.98
2022-11-26T01:39:58.728Z,-34.05
2022-11-26T01:45:01.429Z,-33.80
2022-11-26T01:50:33.655Z,-33.82
2022-11-26T01:55:58.341Z,-33.78
2022-11-26T02:01:01.315Z,-33.79
2022-11-26T02:06:11.352Z,-33.78
2022-11-26T02:11:20.938Z,-33.79
2022-11-26T02:16:59.482Z,-33.81
2022-11-26T02:22:43.571Z,-33.74
2022-11-26T02:28:38.874Z,-34.00
2022-11-26T02:34:05.142Z,-33.78
2022-11-26T02:39:15.001Z,-33.75
2022-11-26T02:44:20.932Z,-33.76
2022-11-26T02:49:23.666Z,-33.66
2022-11-26T02:54:27.091Z,-33.79
2022-11-26T02:59:30.248Z,-33.75
2022-11-26T03:04:39.910Z,-33.61
2022-11-26T03:09:54.882Z,-33.96
2022-11-26T03:14:57.902Z,-33.53
2022-11-26T03:20:00.686Z,-33.49
2022-11-26T03:25:04.519Z,-33.51
2022-11-26T03:30:08.032Z,-33.49
2022-11-26T03:35:10.947Z,-33.42
2022-11-26T03:40:14.103Z,-33.62
2022-11-26T03:45:16.806Z,-33.31
2022-11-26T03:50:19.548Z,-33.32
2022-11-26T03:55:22.902Z,-33.31
2022-11-26T04:00:25.703Z,-33.21
2022-11-26T04:05:28.572Z,-33.09
2022-11-26T04:10:31.402Z,-33.04
2022-11-26T04:15:34.797Z,-32.92
2022-11-26T04:20:37.530Z,-32.91
2022-11-26T04:25:40.389Z,-32.70
2022-11-26T04:30:43.696Z,-32.55
2022-11-26T04:35:46.573Z,-32.57
2022-11-26T04:40:49.198Z,-32.52
2022-11-26T04:45:52.009Z,-32.55
2022-11-26T04:50:54.707Z,-32.53
2022-11-26T04:55:57.449Z,-32.44
2022-11-26T05:01:00.175Z,-32.44
2022-11-26T05:06:03.659Z,-32.39
2022-11-26T05:11:06.769Z,-32.37
2022-11-26T05:16:09.494Z,-32.52
2022-11-26T05:21:12.192Z,-32.50
2022-11-26T05:26:14.843Z,-32.35
2022-11-26T05:31:17.697Z,-32.19
2022-11-26T05:36:20.624Z,-32.12
2022-11-26T05:41:23.370Z,-32.20
2022-11-26T05:46:27.102Z,-32.18
2022-11-26T05:51:29.888Z,-31.93
2022-11-26T05:56:32.692Z,-31.91
2022-11-26T06:01:35.483Z,-31.94
2022-11-26T06:06:38.152Z,-31.65
2022-11-26T06:11:40.889Z,-31.44
2022-11-26T06:16:43.717Z,-31.62
2022-11-26T06:21:47.905Z,-31.35
2022-11-26T06:26:50.622Z,-31.48
2022-11-26T06:31:53.501Z,-31.33
2022-11-26T06:36:56.358Z,-31.50
2022-11-26T06:41:59.102Z,-31.68
2022-11-26T06:47:01.813Z,-31.62
2022-11-26T06:52:04.884Z,-31.66
2022-11-26T06:57:07.699Z,-31.73
2022-11-26T07:02:11.078Z,-31.73
2022-11-26T07:07:13.941Z,-31.69
2022-11-26T07:12:16.758Z,-31.68
2022-11-26T07:17:19.444Z,-31.67
2022-11-26T07:22:22.253Z,-31.67
2022-11-26T07:27:24.875Z,-31.69
2022-11-26T07:32:27.719Z,-31.64
2022-11-26T07:37:30.589Z,-31.39
2022-11-26T07:42:33.987Z,-31.18
2022-11-26T07:47:36.864Z,-31.23
2022-11-26T07:52:39.667Z,-31.14
2022-11-26T07:57:42.292Z,-31.19
2022-11-26T08:02:44.988Z,-30.88
2022-11-26T08:07:47.738Z,-30.79
2022-11-26T08:12:50.496Z,-30.77
2022-11-26T08:17:57.444Z,-30.80
2022-11-26T08:23:00.164Z,-30.75
2022-11-26T08:28:02.904Z,-30.95
2022-11-26T08:33:05.615Z,-30.79
2022-11-26T08:38:08.428Z,-30.66
2022-11-26T08:43:11.061Z,-30.65
2022-11-26T08:48:13.812Z,-30.84
2022-11-26T08:53:16.644Z,-31.18
2022-11-26T08:58:19.579Z,-31.25
2022-11-26T09:03:22.321Z,-31.25
2022-11-26T09:08:28.167Z,-31.35
2022-11-26T09:13:30.803Z,-31.43
2022-11-26T09:18:33.526Z,-31.39
2022-11-26T09:23:36.227Z,-31.52
2022-11-26T09:28:39.867Z,-31.41
2022-11-26T09:33:42.920Z,-31.48
2022-11-26T09:38:45.952Z,-31.50
2022-11-26T09:44:16.314Z,-31.53
2022-11-26T09:49:19.190Z,-31.67
2022-11-26T09:54:24.290Z,-31.71
2022-11-26T09:59:27.348Z,-31.80
2022-11-26T10:04:33.467Z,-32.00
2022-11-26T10:10:00.314Z,-31.96
2022-11-26T10:15:17.899Z,-32.08
2022-11-26T10:20:34.702Z,-32.09
2022-11-26T10:25:45.580Z,-32.07
2022-11-26T10:31:01.987Z,-32.13
2022-11-26T10:36:07.936Z,-32.21
2022-11-26T10:41:10.825Z,-32.28
2022-11-26T10:46:34.819Z,-32.35
2022-11-26T10:51:38.071Z,-32.56
2022-11-26T10:56:47.769Z,-32.41
2022-11-26T11:01:53.052Z,-32.45
2022-11-26T11:06:59.560Z,-32.47
2022-11-26T11:12:11.376Z,-32.50
2022-11-26T11:17:41.024Z,-32.53
2022-11-26T11:22:47.418Z,-32.53
2022-11-26T11:27:50.526Z,-32.62
2022-11-26T11:32:57.551Z,-32.59
2022-11-26T11:38:00.309Z,-32.45
2022-11-26T11:43:05.759Z,-32.50
2022-11-26T11:48:17.973Z,-32.50
2022-11-26T11:53:33.315Z,-32.48
2022-11-26T11:58:51.960Z,-32.55
2022-11-26T12:04:27.055Z,-32.55
2022-11-26T12:09:47.156Z,-32.79
2022-11-26T12:15:06.627Z,-32.46
2022-11-26T12:20:32.712Z,-32.51
2022-11-26T12:25:37.546Z,-32.48
2022-11-26T12:30:48.458Z,-32.42
2022-11-26T12:36:12.485Z,-32.48
2022-11-26T12:41:22.839Z,-32.37
2022-11-26T12:46:39.721Z,-32.41
2022-11-26T12:51:50.738Z,-32.52
2022-11-26T12:57:21.472Z,-32.52
2022-11-26T13:02:40.981Z,-32.48
2022-11-26T13:08:13.494Z,-32.51
2022-11-26T13:13:28.365Z,-32.44
2022-11-26T13:18:36.087Z,-32.38
2022-11-26T13:23:53.531Z,-32.41
2022-11-26T13:29:17.641Z,-32.46
2022-11-26T13:34:52.848Z,-32.57
2022-11-26T13:40:21.723Z,-32.62
2022-11-26T13:45:59.902Z,-32.66
2022-11-26T13:51:05.382Z,-32.70
2022-11-26T13:56:09.136Z,-32.83
2022-11-26T14:01:31.891Z,-32.71
2022-11-26T14:06:35.317Z,-32.66
2022-11-26T14:11:47.040Z,-32.57
2022-11-26T14:17:01.833Z,-32.51
2022-11-26T14:22:04.791Z,-32.61
2022-11-26T14:27:07.711Z,-32.63
2022-11-26T14:32:18.650Z,-32.75
2022-11-26T14:37:26.774Z,-32.79
2022-11-26T14:42:30.090Z,-32.79
2022-11-26T14:47:33.465Z,-32.90
2022-11-26T14:52:39.031Z,-32.80
2022-11-26T14:57:46.010Z,-32.79
2022-11-26T15:02:48.851Z,-32.78
2022-11-26T15:08:03.323Z,-32.77
2022-11-26T15:13:17.353Z,-32.79
2022-11-26T15:18:23.160Z,-32.81
2022-11-26T15:23:30.471Z,-32.83
2022-11-26T15:28:38.633Z,-32.90
2022-11-26T15:33:42.359Z,-32.86
2022-11-26T15:39:07.560Z,-32.87
2022-11-26T15:44:26.903Z,-32.90
2022-11-26T15:49:33.976Z,-33.02
2022-11-26T15:55:04.495Z,-32.96
2022-11-26T16:00:08.724Z,-32.95
2022-11-26T16:05:31.649Z,-32.98
2022-11-26T16:10:35.929Z,-33.13
2022-11-26T16:15:47.008Z,-33.05
2022-11-26T16:20:49.974Z,-33.04
2022-11-26T16:26:11.400Z,-33.03
2022-11-26T16:31:15.526Z,-33.06
2022-11-26T16:36:19.515Z,-33.00
2022-11-26T16:44:51.855Z,-33.17
2022-11-26T16:49:55.227Z,-32.98
2022-11-26T16:54:57.900Z,-33.27
2022-11-26T17:00:05.308Z,-32.77
2022-11-26T17:05:08.431Z,-32.85
2022-11-26T17:10:15.455Z,-32.71
2022-11-26T17:15:18.649Z,-32.55
2022-11-26T17:20:25.849Z,-32.44
2022-11-26T17:25:28.515Z,-32.43
2022-11-26T17:30:31.289Z,-32.40
2022-11-26T17:35:34.134Z,-32.49
2022-11-26T17:40:36.851Z,-32.42
2022-11-26T17:45:39.965Z,-32.45
2022-11-26T17:50:43.129Z,-32.44
2022-11-26T17:55:45.892Z,-32.49
2022-11-26T18:00:49.196Z,-32.43
2022-11-26T18:05:51.866Z,-32.43
2022-11-26T18:10:54.525Z,-32.56
2022-11-26T18:16:00.853Z,-32.49
2022-11-26T18:21:03.612Z,-32.61
2022-11-26T18:26:06.417Z,-32.55
2022-11-26T18:31:09.097Z,-32.49
2022-11-26T18:36:12.360Z,-32.43
2022-11-26T18:41:15.187Z,-32.54
2022-11-26T18:46:18.445Z,-32.55
2022-11-26T18:51:21.255Z,-32.52
2022-11-26T18:56:24.646Z,-32.51
2022-11-26T19:01:29.395Z,-32.96
2022-11-26T19:06:33.812Z,-32.63
2022-11-26T19:11:36.511Z,-32.58
2022-11-26T19:16:40.027Z,-32.55
2022-11-26T19:21:43.174Z,-32.43
2022-11-26T19:26:45.775Z,-32.50
2022-11-26T19:31:48.485Z,-32.58
2022-11-26T19:36:53.627Z,-32.69
2022-11-26T19:41:56.337Z,-32.66
2022-11-26T19:46:59.020Z,-32.62
2022-11-26T19:52:01.633Z,-32.60
2022-11-26T19:57:04.498Z,-32.59
2022-11-26T20:02:08.899Z,-32.66
2022-11-26T20:07:11.720Z,-32.65
2022-11-26T20:12:14.296Z,-32.59
2022-11-26T20:17:17.030Z,-32.54
2022-11-26T20:22:19.782Z,-32.44
2022-11-26T20:27:22.446Z,-32.32
2022-11-26T20:32:25.239Z,-32.32
2022-11-26T20:37:27.940Z,-32.27
2022-11-26T20:42:30.701Z,-32.35
2022-11-26T20:47:33.338Z,-32.21
2022-11-26T20:52:35.949Z,-32.25
2022-11-26T20:57:38.791Z,-32.22
2022-11-26T21:02:41.508Z,-32.23
2022-11-26T21:07:44.360Z,-32.27
2022-11-26T21:12:47.145Z,-32.53
2022-11-26T21:17:49.923Z,-32.31
2022-11-26T21:22:52.850Z,-32.31
2022-11-26T21:27:55.935Z,-32.22
2022-11-26T21:32:58.750Z,-32.21
2022-11-26T21:38:01.585Z,-32.22
2022-11-26T21:43:04.246Z,-32.25
2022-11-26T21:48:07.024Z,-32.17
2022-11-26T21:53:09.681Z,-32.10
2022-11-26T21:58:12.464Z,-32.12
2022-11-26T22:03:15.147Z,-32.02
2022-11-26T22:08:17.762Z,-31.98
2022-11-26T22:13:21.056Z,-32.02
2022-11-26T22:18:23.756Z,-32.00
2022-11-26T22:23:27.531Z,-31.85
2022-11-26T22:28:30.568Z,-31.77
2022-11-26T22:33:33.244Z,-31.80
2022-11-26T22:38:37.855Z,-31.77
2022-11-26T22:43:41.230Z,-31.65
2022-11-26T22:48:44.400Z,-31.82
2022-11-26T22:53:52.430Z,-31.50
2022-11-26T22:58:55.310Z,-31.50
2022-11-26T23:03:59.481Z,-31.50
2022-11-26T23:09:03.832Z,-31.52
2022-11-26T23:14:07.772Z,-31.49
2022-11-26T23:19:13.061Z,-31.54
2022-11-26T23:24:16.868Z,-31.64
2022-11-26T23:29:19.680Z,-31.67
2022-11-26T23:34:22.671Z,-31.62
2022-11-26T23:39:25.370Z,-31.57
2022-11-26T23:44:28.047Z,-31.60
2022-11-26T23:49:30.752Z,-31.64
2022-11-26T23:54:33.358Z,-31.59
2022-11-26T23:59:36.017Z,-31.59
